Time;durP1;ratioP1;P1;durP2;ratioP2;P2;SDS_P1;SDS_P2;PMS_P1;PMS_P2;Temp;Humidity;BMP_temperature;BMP_pressure;BME280_temperature;BME280_humidity;BME280_pressure;Samples;Min_cycle;Max_cycle;Signal;HPM_P1;HPM_P2
2022/04/17 00:00:25;;;;;;;;;12.33;12.33;13.20;43.00;;;;;;5115638;28;8785;-62
2022/04/17 00:02:52;;;;;;;;;14.33;13.00;13.30;43.00;;;;;;5115574;28;8828;-63
2022/04/17 00:05:18;;;;;;;;;16.50;15.50;13.20;43.10;;;;;;5115609;28;8745;-63
2022/04/17 00:07:44;;;;;;;;;15.00;13.33;12.70;44.10;;;;;;5115522;28;8812;-62
2022/04/17 00:10:11;;;;;;;;;14.00;13.00;12.90;43.60;;;;;;5097560;28;8758;-63
2022/04/17 00:12:41;;;;;;;;;12.00;12.00;13.00;42.80;;;;;;5115486;28;8766;-63
2022/04/17 00:15:10;;;;;;;;;13.00;7.00;13.20;42.30;;;;;;5115374;28;8765;-63
2022/04/17 00:17:42;;;;;;;;;10.00;9.00;13.20;42.00;;;;;;5115305;28;8879;-62
2022/04/17 00:20:18;;;;;;;;;11.67;10.67;13.10;42.20;;;;;;5115534;28;8762;-62
2022/04/17 00:22:44;;;;;;;;;13.33;12.33;12.90;43.00;;;;;;5115113;28;8833;-63
2022/04/17 00:25:12;;;;;;;;;14.67;14.00;13.10;42.20;;;;;;5115172;28;8761;-63
2022/04/17 00:27:40;;;;;;;;;11.00;11.00;12.80;42.30;;;;;;5115090;28;8762;-63
2022/04/17 00:30:08;;;;;;;;;8.67;8.67;13.10;42.00;;;;;;5115091;28;8770;-63
2022/04/17 00:32:35;;;;;;;;;12.00;11.33;13.10;41.70;;;;;;5115241;28;8847;-63
2022/04/17 00:35:02;;;;;;;;;10.67;10.67;13.40;40.50;;;;;;5114998;28;9426;-63
2022/04/17 00:37:27;;;;;;;;;9.33;8.67;13.10;40.80;;;;;;5114945;28;8765;-63
2022/04/17 00:39:53;;;;;;;;;12.00;11.33;12.50;41.80;;;;;;5115200;28;8778;-62
2022/04/17 00:42:19;;;;;;;;;5.00;5.00;12.60;41.60;;;;;;5114662;28;8758;-63
2022/04/17 00:44:45;;;;;;;;;11.67;10.33;12.50;41.40;;;;;;5115257;28;8768;-63
2022/04/17 00:47:15;;;;;;;;;11.33;11.33;12.60;42.00;;;;;;5114801;28;8774;-63
2022/04/17 00:49:43;;;;;;;;;11.33;10.00;12.90;41.70;;;;;;5114911;28;8858;-63
2022/04/17 00:52:08;;;;;;;;;8.00;7.67;13.00;40.90;;;;;;5114634;28;8792;-63
2022/04/17 00:54:37;;;;;;;;;10.00;10.00;13.30;40.60;;;;;;5114699;28;8758;-63
2022/04/17 00:57:06;;;;;;;;;10.00;10.00;13.10;40.60;;;;;;5114844;28;9211;-63
2022/04/17 00:59:32;;;;;;;;;9.00;8.33;13.30;39.80;;;;;;5114596;28;8798;-63
2022/04/17 01:01:58;;;;;;;;;7.00;7.00;13.10;39.80;;;;;;5114712;28;8757;-63
2022/04/17 01:04:24;;;;;;;;;9.33;9.00;13.20;39.30;;;;;;5114396;28;8804;-63
2022/04/17 01:06:50;;;;;;;;;12.00;10.00;13.30;38.70;;;;;;5114636;28;8761;-62
2022/04/17 01:09:16;;;;;;;;;9.67;9.67;13.00;39.70;;;;;;5114626;28;8781;-63
2022/04/17 01:11:42;;;;;;;;;9.00;9.00;12.90;39.00;;;;;;5114600;28;8762;-63
2022/04/17 01:14:09;;;;;;;;;10.00;10.00;13.00;39.40;;;;;;5114599;28;8863;-62
2022/04/17 01:16:38;;;;;;;;;7.00;7.00;13.20;39.00;;;;;;5114346;28;8854;-62
2022/04/17 01:19:11;;;;;;;;;10.67;10.67;12.40;40.40;;;;;;5114361;28;8773;-63
2022/04/17 01:21:42;;;;;;;;;10.00;10.00;12.30;40.10;;;;;;5114234;28;8824;-63
2022/04/17 01:26:58;;;;;;;;;10.00;10.00;11.80;40.80;;;;;;5114318;28;8729;-62
2022/04/17 01:29:31;;;;;;;;;9.33;9.33;12.30;40.00;;;;;;5103893;28;8792;-63
2022/04/17 01:31:59;;;;;;;;;13.00;11.00;12.10;40.30;;;;;;5094299;28;8957;-62
2022/04/17 01:34:25;;;;;;;;;10.67;9.33;11.90;40.90;;;;;;5094686;28;8771;-63
2022/04/17 01:36:51;;;;;;;;;8.33;8.33;12.20;39.80;;;;;;5094476;28;8914;-63
2022/04/17 01:39:21;;;;;;;;;7.33;7.33;12.00;39.80;;;;;;5094586;28;8828;-63
2022/04/17 01:41:48;;;;;;;;;9.33;9.33;11.50;41.50;;;;;;5094440;28;8775;-63
2022/04/17 01:44:16;;;;;;;;;11.00;11.00;12.00;39.80;;;;;;5094659;28;8851;-63
2022/04/17 01:46:43;;;;;;;;;10.33;10.33;12.00;39.70;;;;;;5093970;28;8782;-63
2022/04/17 01:49:09;;;;;;;;;10.00;9.67;11.80;39.30;;;;;;5095256;28;8763;-64
2022/04/17 01:51:39;;;;;;;;;9.00;9.00;12.00;39.00;;;;;;5114949;28;8777;-63
2022/04/17 01:54:09;;;;;;;;;7.67;7.67;12.20;38.70;;;;;;5114718;28;8769;-63
2022/04/17 01:56:36;;;;;;;;;10.67;10.67;12.30;38.50;;;;;;5114781;28;8766;-63
2022/04/17 01:59:04;;;;;;;;;7.67;6.67;11.30;40.20;;;;;;5114934;28;8770;-63
2022/04/17 02:01:29;;;;;;;;;10.00;10.00;11.40;39.60;;;;;;5114646;28;8746;-62
2022/04/17 02:03:55;;;;;;;;;11.00;11.00;11.20;40.70;;;;;;5114622;28;8793;-63
2022/04/17 02:06:21;;;;;;;;;8.00;8.00;11.40;40.10;;;;;;5100947;28;9417;-63
2022/04/17 02:08:47;;;;;;;;;12.00;9.00;10.70;41.50;;;;;;5094429;28;8772;-62
2022/04/17 02:11:12;;;;;;;;;10.00;10.00;10.30;43.00;;;;;;5094325;28;9413;-63
2022/04/17 02:13:39;;;;;;;;;9.00;9.00;10.50;42.00;;;;;;5094255;28;8833;-63
2022/04/17 02:16:06;;;;;;;;;8.67;8.00;10.90;41.90;;;;;;5094130;28;8836;-63
2022/04/17 02:18:32;;;;;;;;;10.00;9.00;11.10;40.50;;;;;;5094188;28;8779;-62
2022/04/17 02:20:59;;;;;;;;;9.67;9.00;11.00;40.80;;;;;;5098075;28;8753;-62
2022/04/17 02:23:25;;;;;;;;;11.00;11.00;11.10;41.40;;;;;;5114496;28;8789;-61
2022/04/17 02:25:50;;;;;;;;;12.33;11.67;10.80;41.60;;;;;;5114492;28;8769;-62
2022/04/17 02:28:16;;;;;;;;;11.33;11.33;10.80;41.90;;;;;;5114427;28;8830;-62
2022/04/17 02:30:43;;;;;;;;;9.00;9.00;11.00;41.20;;;;;;5114452;28;8758;-62
2022/04/17 02:33:09;;;;;;;;;12.67;10.00;10.70;42.10;;;;;;5114404;28;9543;-62
2022/04/17 02:35:35;;;;;;;;;11.00;11.00;10.70;41.70;;;;;;5114327;28;8769;-62
2022/04/17 02:38:01;;;;;;;;;11.50;10.75;11.20;40.60;;;;;;5114295;28;8753;-62
2022/04/17 02:40:26;;;;;;;;;11.00;9.75;11.20;41.30;;;;;;5114277;28;8762;-62
2022/04/17 02:42:53;;;;;;;;;9.00;9.00;11.10;41.00;;;;;;5096197;28;8843;-62
2022/04/17 02:45:19;;;;;;;;;21.75;21.00;10.40;42.30;;;;;;5097576;28;8767;-62
2022/04/17 02:47:46;;;;;;;;;15.00;13.33;10.40;42.70;;;;;;5097657;28;8842;-62
2022/04/17 02:50:17;;;;;;;;;11.25;10.00;11.00;41.80;;;;;;5097785;28;8858;-62
2022/04/17 02:52:44;;;;;;;;;12.75;10.75;11.40;40.50;;;;;;5097628;28;8764;-62
2022/04/17 02:55:10;;;;;;;;;11.00;10.50;11.20;40.80;;;;;;5097416;28;8748;-62
2022/04/17 02:57:37;;;;;;;;;10.25;10.25;10.80;42.00;;;;;;5097400;28;8833;-63
2022/04/17 03:00:07;;;;;;;;;8.33;8.00;10.90;41.70;;;;;;5097395;28;8767;-63
2022/04/17 03:05:37;;;;;;;;;6.50;6.50;10.90;41.70;;;;;;5097384;28;8732;-63
2022/04/17 03:08:08;;;;;;;;;8.00;8.00;11.20;40.80;;;;;;5097173;28;9174;-62
2022/04/17 03:10:36;;;;;;;;;8.67;8.67;10.70;41.60;;;;;;5097277;28;8849;-62
2022/04/17 03:13:01;;;;;;;;;13.75;13.75;10.50;42.00;;;;;;5097047;28;8783;-63
2022/04/17 03:15:27;;;;;;;;;8.00;8.00;10.60;42.20;;;;;;5097036;28;8752;-63
2022/04/17 03:17:53;;;;;;;;;13.25;12.50;10.80;41.10;;;;;;5097237;28;8820;-63
2022/04/17 03:20:19;;;;;;;;;12.25;11.50;10.90;41.10;;;;;;5096892;28;8764;-63
2022/04/17 03:22:45;;;;;;;;;9.25;7.00;10.90;41.00;;;;;;5096458;28;8808;-62
2022/04/17 03:25:11;;;;;;;;;6.00;6.00;11.10;40.40;;;;;;5097293;28;8764;-63
2022/04/17 03:27:37;;;;;;;;;14.50;12.00;10.90;40.90;;;;;;5096992;28;8862;-62
2022/04/17 03:30:04;;;;;;;;;11.50;11.50;10.50;41.70;;;;;;5097076;28;9575;-62
2022/04/17 03:32:31;;;;;;;;;12.75;12.75;10.50;42.00;;;;;;5096521;28;8759;-62
2022/04/17 03:34:57;;;;;;;;;14.50;12.00;10.00;42.90;;;;;;5096553;28;8770;-62
2022/04/17 03:37:23;;;;;;;;;13.00;13.00;10.30;42.70;;;;;;5096903;28;9189;-62
2022/04/17 03:39:49;;;;;;;;;12.00;12.00;10.50;42.50;;;;;;5112770;27;8835;-62
2022/04/17 03:42:17;;;;;;;;;12.75;12.75;10.30;42.60;;;;;;5111990;28;8768;-62
2022/04/17 03:44:43;;;;;;;;;12.75;11.25;10.00;43.70;;;;;;5096438;28;8783;-62
2022/04/17 03:47:09;;;;;;;;;12.50;10.00;10.20;43.50;;;;;;5096428;28;8844;-63
2022/04/17 03:49:35;;;;;;;;;8.50;8.50;10.20;43.30;;;;;;5096422;28;8760;-63
2022/04/17 03:52:01;;;;;;;;;11.50;11.50;10.20;43.50;;;;;;5096621;28;8820;-63
2022/04/17 03:54:27;;;;;;;;;10.00;10.00;10.30;43.10;;;;;;5095908;28;8818;-63
2022/04/17 03:56:52;;;;;;;;;10.50;10.50;10.10;43.20;;;;;;5096067;28;8817;-63
2022/04/17 03:59:18;;;;;;;;;11.00;11.00;10.20;43.50;;;;;;5110715;28;8769;-62
2022/04/17 04:01:48;;;;;;;;;6.00;6.00;10.00;44.10;;;;;;5116528;28;8872;-62
2022/04/17 04:04:15;;;;;;;;;10.25;10.25;9.80;44.30;;;;;;5116354;28;8809;-62
2022/04/17 04:06:41;;;;;;;;;10.00;8.50;10.20;43.50;;;;;;5116483;28;8773;-62
2022/04/17 04:09:07;;;;;;;;;11.75;11.75;10.10;43.20;;;;;;5116681;28;8746;-62
2022/04/17 04:11:33;;;;;;;;;14.75;13.00;10.10;43.80;;;;;;5115902;28;9423;-62
2022/04/17 04:13:58;;;;;;;;;11.25;10.75;9.80;44.00;;;;;;5116693;28;9454;-62
2022/04/17 04:16:24;;;;;;;;;8.75;8.75;10.10;43.80;;;;;;5116283;28;8763;-62
2022/04/17 04:18:50;;;;;;;;;11.00;11.00;9.70;44.30;;;;;;5115794;28;8783;-62
2022/04/17 04:21:16;;;;;;;;;10.25;10.25;9.80;43.30;;;;;;5115569;28;8797;-62
2022/04/17 04:23:42;;;;;;;;;15.25;13.75;9.80;44.10;;;;;;5116064;27;8799;-62
2022/04/17 04:26:08;;;;;;;;;11.00;10.25;9.80;44.10;;;;;;5115917;27;8731;-62
2022/04/17 04:28:36;;;;;;;;;10.50;10.50;10.10;43.10;;;;;;5116074;28;8786;-62
2022/04/17 04:31:12;;;;;;;;;14.75;13.00;10.10;43.10;;;;;;5116377;28;8842;-62
2022/04/17 04:33:40;;;;;;;;;11.00;11.00;9.90;43.30;;;;;;5116196;28;8768;-62
2022/04/17 04:36:10;;;;;;;;;12.00;12.00;9.50;43.60;;;;;;5116131;28;9396;-62
2022/04/17 04:38:37;;;;;;;;;15.00;15.00;9.90;44.30;;;;;;5113781;27;8756;-62
2022/04/17 04:41:03;;;;;;;;;14.00;14.00;10.10;44.70;;;;;;5104531;27;8771;-62
2022/04/17 04:43:29;;;;;;;;;12.50;12.50;10.00;45.20;;;;;;5113861;28;8817;-62
2022/04/17 04:46:08;;;;;;;;;16.75;15.75;10.50;44.90;;;;;;5115970;28;8860;-63
2022/04/17 04:51:23;;;;;;;;;17.25;17.00;10.40;45.20;;;;;;5115716;28;8754;-62
2022/04/17 04:53:49;;;;;;;;;19.25;16.75;10.50;45.60;;;;;;5115815;28;8766;-64
2022/04/17 04:56:16;;;;;;;;;14.25;13.75;10.50;45.60;;;;;;5115531;28;8757;-61
2022/04/17 04:58:43;;;;;;;;;16.75;16.75;10.80;45.40;;;;;;5115711;28;8734;-63
2022/04/17 05:01:08;;;;;;;;;16.50;16.00;10.80;44.80;;;;;;5115276;28;8769;-63
2022/04/17 05:03:35;;;;;;;;;17.75;17.75;11.00;45.00;;;;;;5115296;28;8805;-63
2022/04/17 05:06:01;;;;;;;;;15.00;15.00;11.00;44.80;;;;;;5114876;28;8758;-63
2022/04/17 05:08:26;;;;;;;;;14.75;12.50;11.30;44.10;;;;;;5115560;28;9407;-63
2022/04/17 05:10:53;;;;;;;;;16.50;16.50;10.70;46.10;;;;;;5115276;28;8766;-63
2022/04/17 05:13:19;;;;;;;;;20.00;18.50;10.70;46.40;;;;;;5115298;28;8843;-63
2022/04/17 05:15:45;;;;;;;;;17.00;16.00;10.80;45.90;;;;;;5115419;28;8769;-63
2022/04/17 05:18:10;;;;;;;;;18.25;15.25;10.40;45.50;;;;;;5115174;28;8781;-63
2022/04/17 05:20:36;;;;;;;;;13.75;13.00;10.00;46.50;;;;;;5115207;28;8765;-63
2022/04/17 05:23:18;;;;;;;;;12.00;11.25;9.50;47.30;;;;;;5112987;28;8856;-63
2022/04/17 05:25:49;;;;;;;;;13.25;13.00;9.60;47.40;;;;;;5115096;28;8823;-63
2022/04/17 05:28:15;;;;;;;;;18.00;16.00;9.80;46.60;;;;;;5115024;28;8770;-63
2022/04/17 05:30:42;;;;;;;;;15.25;14.00;10.20;46.50;;;;;;5115152;28;9291;-63
2022/04/17 05:33:08;;;;;;;;;17.00;17.00;9.90;46.30;;;;;;5115198;28;8777;-63
2022/04/17 05:35:34;;;;;;;;;22.00;20.75;10.10;46.20;;;;;;5115139;28;8773;-63
2022/04/17 05:38:00;;;;;;;;;19.75;19.00;10.10;46.00;;;;;;5115162;28;8767;-63
2022/04/17 05:40:26;;;;;;;;;19.25;18.00;9.80;46.60;;;;;;5115153;28;8757;-63
2022/04/17 05:42:51;;;;;;;;;18.25;17.25;9.90;46.50;;;;;;5115028;28;9483;-63
2022/04/17 05:45:18;;;;;;;;;21.00;20.25;9.90;46.40;;;;;;5115090;28;9473;-63
2022/04/17 05:47:44;;;;;;;;;20.75;20.25;9.80;46.00;;;;;;5114834;28;8786;-64
2022/04/17 05:50:10;;;;;;;;;20.25;18.50;10.00;45.80;;;;;;5114899;28;8808;-63
2022/04/17 05:52:36;;;;;;;;;16.75;16.75;9.60;46.10;;;;;;5115110;28;9435;-63
2022/04/17 05:55:02;;;;;;;;;15.50;15.50;9.20;47.60;;;;;;5114395;27;9438;-63
2022/04/17 05:57:28;;;;;;;;;16.75;15.00;9.70;47.10;;;;;;5096660;28;8771;-63
2022/04/17 05:59:54;;;;;;;;;16.00;16.00;9.90;46.40;;;;;;5094674;28;8810;-63
2022/04/17 06:02:20;;;;;;;;;22.00;19.50;9.50;45.80;;;;;;5102340;28;8798;-63
2022/04/17 06:04:47;;;;;;;;;19.75;16.00;9.30;47.40;;;;;;5112102;28;8776;-63
2022/04/17 06:07:23;;;;;;;;;14.25;14.25;9.50;46.30;;;;;;5103355;28;8890;-63
2022/04/17 06:09:49;;;;;;;;;17.00;15.00;9.30;46.10;;;;;;5094318;28;8764;-63
2022/04/17 06:12:14;;;;;;;;;14.25;14.25;9.30;46.30;;;;;;5094346;28;8779;-63
2022/04/17 06:14:40;;;;;;;;;16.75;16.25;9.60;46.20;;;;;;5094880;28;9518;-63
2022/04/17 06:17:06;;;;;;;;;15.50;15.25;9.40;45.90;;;;;;5097224;28;8755;-63
2022/04/17 06:19:31;;;;;;;;;13.00;13.00;9.30;46.40;;;;;;5098380;28;8776;-63
2022/04/17 06:21:57;;;;;;;;;16.25;16.25;9.50;45.90;;;;;;5098036;28;8791;-63
2022/04/17 06:24:23;;;;;;;;;15.50;15.00;9.60;45.40;;;;;;5097907;28;8910;-63
2022/04/17 06:26:49;;;;;;;;;16.00;14.25;9.50;45.60;;;;;;5098198;28;8860;-63
2022/04/17 06:29:14;;;;;;;;;24.00;23.00;9.40;45.90;;;;;;5097923;28;8827;-63
2022/04/17 06:31:45;;;;;;;;;17.75;16.00;9.70;45.70;;;;;;5098142;28;8777;-63
2022/04/17 06:34:12;;;;;;;;;23.25;20.75;9.70;45.50;;;;;;5097885;28;8829;-63
2022/04/17 06:36:38;;;;;;;;;19.50;19.00;9.60;45.80;;;;;;5098094;28;8912;-63
2022/04/17 06:39:04;;;;;;;;;23.00;19.50;9.50;45.40;;;;;;5097925;28;8807;-63
2022/04/17 06:41:29;;;;;;;;;20.00;20.00;9.10;46.70;;;;;;5097654;28;9358;-63
2022/04/17 06:43:55;;;;;;;;;20.00;19.50;9.30;47.00;;;;;;5097777;28;8811;-63
2022/04/17 06:46:21;;;;;;;;;21.25;20.50;9.10;46.20;;;;;;5097732;28;8751;-63
2022/04/17 06:48:47;;;;;;;;;20.75;17.00;9.30;45.50;;;;;;5097762;28;9619;-63
2022/04/17 06:51:13;;;;;;;;;20.00;16.25;9.40;45.40;;;;;;5097462;28;8767;-63
2022/04/17 06:53:39;;;;;;;;;16.00;15.75;9.40;45.50;;;;;;5097454;28;8772;-63
2022/04/17 06:56:06;;;;;;;;;16.75;16.75;9.40;45.00;;;;;;5097329;28;8752;-63
2022/04/17 06:58:31;;;;;;;;;20.50;18.00;9.20;45.50;;;;;;5097558;28;9437;-63
2022/04/17 07:00:57;;;;;;;;;13.00;12.00;9.30;45.80;;;;;;5097284;28;8856;-63
2022/04/17 07:03:23;;;;;;;;;17.00;17.00;9.60;44.90;;;;;;5097398;28;8779;-63
2022/04/17 07:05:48;;;;;;;;;18.50;18.25;9.60;44.80;;;;;;5097287;28;8748;-63
2022/04/17 07:08:14;;;;;;;;;17.00;15.25;9.60;44.80;;;;;;5097161;28;8788;-63
2022/04/17 07:10:40;;;;;;;;;15.25;15.25;10.00;44.10;;;;;;5097150;28;8808;-63
2022/04/17 07:13:08;;;;;;;;;12.25;12.25;10.10;43.20;;;;;;5097160;28;8784;-62
2022/04/17 07:15:34;;;;;;;;;16.25;15.50;9.80;44.10;;;;;;5097350;28;9476;-61
2022/04/17 07:18:00;;;;;;;;;15.75;15.75;9.60;44.30;;;;;;5097027;28;8772;-61
2022/04/17 07:20:25;;;;;;;;;14.00;14.00;9.80;44.80;;;;;;5096977;28;8768;-61
2022/04/17 07:22:52;;;;;;;;;14.50;13.00;9.70;44.30;;;;;;5096697;28;8946;-61
2022/04/17 07:25:18;;;;;;;;;19.25;17.25;9.80;44.90;;;;;;5098781;27;8832;-61
2022/04/17 07:27:45;;;;;;;;;18.25;18.25;10.30;43.70;;;;;;5134275;27;8776;-61
2022/04/17 07:30:12;;;;;;;;;19.00;19.00;10.10;43.80;;;;;;5116766;27;8748;-60
2022/04/17 07:32:39;;;;;;;;;19.25;18.00;10.10;43.90;;;;;;5117177;28;8773;-58
2022/04/17 07:35:06;;;;;;;;;16.50;15.75;9.70;44.00;;;;;;5117059;28;8784;-61
2022/04/17 07:37:34;;;;;;;;;20.50;19.75;10.00;45.00;;;;;;5117041;28;8766;-61
2022/04/17 07:40:01;;;;;;;;;22.00;18.75;10.10;44.50;;;;;;5117284;28;8762;-61
2022/04/17 07:42:28;;;;;;;;;14.00;13.50;10.10;43.30;;;;;;5116974;28;9487;-62
2022/04/17 07:44:53;;;;;;;;;19.50;16.00;10.10;43.00;;;;;;5116890;28;8793;-62
2022/04/17 07:47:19;;;;;;;;;16.75;15.00;10.60;42.20;;;;;;5117100;28;8788;-62
2022/04/17 07:49:45;;;;;;;;;23.25;19.50;10.80;42.20;;;;;;5101394;28;8792;-62
2022/04/17 07:52:11;;;;;;;;;18.00;17.00;10.50;41.70;;;;;;5113019;27;8789;-65
2022/04/17 07:54:37;;;;;;;;;20.25;18.25;10.80;41.90;;;;;;5098874;28;8805;-64
2022/04/17 07:57:03;;;;;;;;;14.00;10.75;11.10;40.70;;;;;;5098045;28;8775;-62
2022/04/17 07:59:28;;;;;;;;;11.33;11.33;11.20;41.40;;;;;;5116886;28;9453;-62
2022/04/17 08:02:11;;;;;;;;;16.67;14.00;11.30;40.30;;;;;;5109783;28;9472;-61
2022/04/17 08:04:40;;;;;;;;;17.00;17.00;10.90;40.90;;;;;;5107334;28;8831;-63
2022/04/17 08:07:06;;;;;;;;;13.00;13.00;10.80;41.60;;;;;;5100752;27;8770;-60
2022/04/17 08:09:32;;;;;;;;;12.00;12.00;10.80;42.50;;;;;;5117585;27;8787;-60
2022/04/17 08:11:59;;;;;;;;;16.25;15.00;10.80;41.30;;;;;;5136919;27;8826;-60
2022/04/17 08:14:26;;;;;;;;;14.00;14.00;10.90;40.70;;;;;;5118196;27;8802;-64
2022/04/17 08:16:51;;;;;;;;;14.00;13.00;11.00;41.00;;;;;;5101483;28;8784;-64
2022/04/17 08:19:17;;;;;;;;;11.33;11.33;10.80;41.60;;;;;;5111839;28;8762;-65
2022/04/17 08:21:43;;;;;;;;;13.00;12.33;10.80;41.60;;;;;;5116304;27;8792;-62
2022/04/17 08:24:09;;;;;;;;;10.00;10.00;10.80;40.90;;;;;;5113870;28;9436;-62
2022/04/17 08:26:35;;;;;;;;;8.00;8.00;11.00;39.40;;;;;;5114735;28;8738;-65
2022/04/17 08:29:00;;;;;;;;;10.67;10.67;10.80;39.70;;;;;;5114680;28;8780;-65
2022/04/17 08:31:26;;;;;;;;;12.00;11.33;10.80;39.70;;;;;;5114849;28;8740;-63
2022/04/17 08:33:52;;;;;;;;;13.33;11.00;11.40;39.60;;;;;;5114594;28;8837;-63
2022/04/17 08:36:18;;;;;;;;;14.00;13.67;11.60;39.10;;;;;;5113139;28;8860;-65
2022/04/17 08:38:44;;;;;;;;;14.00;14.00;12.10;38.40;;;;;;5114322;28;8865;-65
2022/04/17 08:41:11;;;;;;;;;8.00;6.00;11.90;38.80;;;;;;5114272;28;9384;-65
2022/04/17 08:43:37;;;;;;;;;12.33;12.33;11.50;39.10;;;;;;5114365;28;8804;-64
2022/04/17 08:46:03;;;;;;;;;15.00;14.00;11.40;39.50;;;;;;5111957;28;9368;-62
2022/04/17 08:48:32;;;;;;;;;12.67;12.67;11.00;40.00;;;;;;5112366;28;8743;-63
2022/04/17 08:50:59;;;;;;;;;10.67;10.67;11.00;39.30;;;;;;5114168;28;8778;-63
2022/04/17 08:53:27;;;;;;;;;16.67;12.67;11.40;39.80;;;;;;5114365;28;8886;-64
2022/04/17 08:55:53;;;;;;;;;16.33;15.00;12.00;39.70;;;;;;5114582;28;8761;-63
2022/04/17 08:58:19;;;;;;;;;14.67;13.00;12.10;38.70;;;;;;5120670;27;8787;-64
2022/04/17 09:00:44;;;;;;;;;16.00;11.00;11.90;38.50;;;;;;5116701;27;9425;-64
2022/04/17 09:03:11;;;;;;;;;15.67;15.67;11.70;37.90;;;;;;5111286;28;8821;-64
2022/04/17 09:05:38;;;;;;;;;13.00;12.00;11.60;38.80;;;;;;5114328;28;8735;-63
2022/04/17 09:08:18;;;;;;;;;13.00;12.00;11.90;39.00;;;;;;5114609;27;8779;-63
2022/04/17 09:10:59;;;;;;;;;13.00;13.00;12.20;38.10;;;;;;5111354;27;8786;-63
2022/04/17 09:13:33;;;;;;;;;9.00;9.00;12.00;38.30;;;;;;5113204;28;8785;-64
2022/04/17 09:16:02;;;;;;;;;10.67;10.67;12.30;38.00;;;;;;5107080;28;8740;-63
2022/04/17 09:18:29;;;;;;;;;16.33;15.00;12.40;36.80;;;;;;5113974;28;8781;-63
2022/04/17 09:20:58;;;;;;;;;11.00;11.00;12.40;37.40;;;;;;5111922;28;8778;-63
2022/04/17 09:23:40;;;;;;;;;10.00;10.00;12.70;37.00;;;;;;5112809;28;8853;-63
2022/04/17 09:26:06;;;;;;;;;11.67;11.67;12.50;36.50;;;;;;5104207;28;8792;-62
2022/04/17 09:28:34;;;;;;;;;10.00;10.00;12.30;36.70;;;;;;5114127;27;8748;-62
2022/04/17 09:31:01;;;;;;;;;12.33;10.33;12.60;36.40;;;;;;5111493;28;8818;-62
2022/04/17 09:33:41;;;;;;;;;12.33;12.33;12.80;37.00;;;;;;5113466;28;8778;-62
2022/04/17 09:36:08;;;;;;;;;14.33;14.33;12.80;36.00;;;;;;5111357;28;8784;-62
2022/04/17 09:38:34;;;;;;;;;9.00;9.00;12.90;37.70;;;;;;5115755;28;8903;-60
2022/04/17 09:41:07;;;;;;;;;10.00;10.00;13.40;36.10;;;;;;5102621;28;8764;-61
2022/04/17 09:43:37;;;;;;;;;8.33;8.33;13.70;36.20;;;;;;5114196;27;9528;-60
2022/04/17 09:46:04;;;;;;;;;7.33;7.00;13.80;35.20;;;;;;5133096;27;8890;-60
2022/04/17 09:48:34;;;;;;;;;10.00;10.00;13.40;34.20;;;;;;5118268;28;8788;-60
2022/04/17 09:51:17;;;;;;;;;13.33;12.00;13.20;35.80;;;;;;5123084;28;9352;-60
2022/04/17 09:53:54;;;;;;;;;11.33;11.33;13.30;35.60;;;;;;5119355;28;8761;-61
2022/04/17 09:56:33;;;;;;;;;12.00;10.67;13.90;34.00;;;;;;5119286;27;8776;-62
2022/04/17 09:59:00;;;;;;;;;14.67;12.00;14.40;33.70;;;;;;5139600;27;8759;-63
2022/04/17 10:01:27;;;;;;;;;11.00;11.00;15.00;33.30;;;;;;5120289;27;8773;-62
2022/04/17 10:03:55;;;;;;;;;10.33;9.67;15.60;32.70;;;;;;5109037;27;8793;-65
2022/04/17 10:06:23;;;;;;;;;14.33;12.00;15.20;31.90;;;;;;5107238;28;8768;-63
2022/04/17 10:08:51;;;;;;;;;12.00;10.67;15.30;31.90;;;;;;5107294;28;8768;-62
2022/04/17 10:11:18;;;;;;;;;11.00;11.00;15.90;32.10;;;;;;5117756;27;8768;-62
2022/04/17 10:13:45;;;;;;;;;10.00;10.00;16.00;31.50;;;;;;5139423;27;8799;-63
2022/04/17 10:16:13;;;;;;;;;7.67;6.33;16.10;31.90;;;;;;5139487;27;8748;-66
2022/04/17 10:18:41;;;;;;;;;9.00;9.00;16.10;32.10;;;;;;5116900;27;8790;-65
2022/04/17 10:21:09;;;;;;;;;10.00;9.00;16.20;31.50;;;;;;5104422;28;8865;-63
2022/04/17 10:23:42;;;;;;;;;3.33;3.33;15.80;31.50;;;;;;5109440;27;8839;-63
2022/04/17 10:26:09;;;;;;;;;11.00;11.00;15.40;32.90;;;;;;5118383;28;8751;-62
2022/04/17 10:28:43;;;;;;;;;12.33;12.33;15.00;31.40;;;;;;5126841;27;8748;-66
2022/04/17 10:31:20;;;;;;;;;9.00;8.33;15.00;30.70;;;;;;5125897;27;8935;-66
2022/04/17 10:34:17;;;;;;;;;9.00;9.00;14.90;32.20;;;;;;5103389;28;8790;-64
2022/04/17 10:36:46;;;;;;;;;9.00;9.00;15.30;32.90;;;;;;5104557;28;8790;-63
2022/04/17 10:39:18;;;;;;;;;11.00;11.00;15.70;30.90;;;;;;5108294;28;8796;-63
2022/04/17 10:41:44;;;;;;;;;12.00;12.00;16.20;31.00;;;;;;5108488;28;8766;-64
2022/04/17 10:44:11;;;;;;;;;10.67;10.00;16.20;31.80;;;;;;5099004;28;8949;-63
2022/04/17 10:46:51;;;;;;;;;8.67;8.67;16.60;30.40;;;;;;5113050;27;8864;-61
2022/04/17 10:49:22;;;;;;;;;10.33;10.33;16.50;31.20;;;;;;5128875;27;9411;-66
2022/04/17 10:51:56;;;;;;;;;13.00;10.00;16.80;29.70;;;;;;5109523;28;8762;-64
2022/04/17 10:54:22;;;;;;;;;9.00;9.00;16.50;30.10;;;;;;5098991;28;8768;-64
2022/04/17 10:56:59;;;;;;;;;8.00;8.00;16.70;28.80;;;;;;5097370;28;8752;-64
2022/04/17 10:59:34;;;;;;;;;9.00;9.00;16.90;29.80;;;;;;5129807;27;8779;-63
2022/04/17 11:02:07;;;;;;;;;10.33;10.33;16.80;29.60;;;;;;5107447;27;8799;-63
2022/04/17 11:04:53;;;;;;;;;11.67;11.00;17.60;30.00;;;;;;5128249;27;8818;-64
2022/04/17 11:07:21;;;;;;;;;8.00;8.00;17.80;28.00;;;;;;5117454;28;8773;-63
2022/04/17 11:09:47;;;;;;;;;10.00;10.00;16.80;27.80;;;;;;5103011;28;9445;-60
2022/04/17 11:12:20;;;;;;;;;8.00;8.00;16.50;28.40;;;;;;5103427;28;8768;-66
2022/04/17 11:15:12;;;;;;;;;8.67;8.67;16.70;28.40;;;;;;5101926;28;9840;-64
2022/04/17 11:17:41;;;;;;;;;9.67;8.33;16.50;28.80;;;;;;5078928;28;8806;-63
2022/04/17 11:20:07;;;;;;;;;8.00;7.00;16.60;28.40;;;;;;5110169;28;8842;-64
2022/04/17 11:22:37;;;;;;;;;8.00;8.00;17.00;30.00;;;;;;5104822;28;8848;-64
2022/04/17 11:25:06;;;;;;;;;6.67;6.67;17.40;28.90;;;;;;5104369;28;8858;-64
2022/04/17 11:27:31;;;;;;;;;7.00;6.00;17.80;28.30;;;;;;5099978;27;8834;-64
2022/04/17 11:29:59;;;;;;;;;8.00;8.00;18.50;26.80;;;;;;5105733;27;8760;-64
2022/04/17 11:32:28;;;;;;;;;8.67;7.33;19.20;26.90;;;;;;5106761;28;8940;-69
2022/04/17 11:34:56;;;;;;;;;12.67;12.00;19.20;27.00;;;;;;5112738;27;8801;-64
2022/04/17 11:37:23;;;;;;;;;13.67;12.33;19.10;27.40;;;;;;5116984;28;8803;-64
2022/04/17 11:39:51;;;;;;;;;8.33;7.33;18.50;26.50;;;;;;5105243;28;8864;-64
2022/04/17 11:42:17;;;;;;;;;9.00;7.33;18.50;27.50;;;;;;5102412;28;8764;-62
2022/04/17 11:44:44;;;;;;;;;12.00;11.00;18.90;27.30;;;;;;5115789;27;8817;-62
2022/04/17 11:47:15;;;;;;;;;5.00;5.00;17.80;28.00;;;;;;5134912;27;8796;-67
2022/04/17 11:49:42;;;;;;;;;7.00;7.00;17.90;27.70;;;;;;5137380;27;8764;-62
2022/04/17 11:52:16;;;;;;;;;10.00;10.00;18.30;29.20;;;;;;5137376;27;8802;-65
2022/04/17 11:54:43;;;;;;;;;11.33;10.00;18.80;27.50;;;;;;5115550;27;9506;-63
2022/04/17 11:57:09;;;;;;;;;12.00;10.00;18.60;27.00;;;;;;5100309;28;8768;-66
2022/04/17 11:59:48;;;;;;;;;9.00;9.00;18.00;26.90;;;;;;5134388;27;8790;-66
2022/04/17 12:02:20;;;;;;;;;9.67;9.67;18.30;26.70;;;;;;5104998;28;8940;-61
2022/04/17 12:04:47;;;;;;;;;8.00;8.00;18.30;27.80;;;;;;5098262;28;8795;-70
2022/04/17 12:07:18;;;;;;;;;6.00;6.00;18.00;27.00;;;;;;5121209;27;8772;-62
2022/04/17 12:09:44;;;;;;;;;7.33;7.33;18.10;28.30;;;;;;5122502;27;8774;-62
2022/04/17 12:12:14;;;;;;;;;8.00;8.00;18.80;27.30;;;;;;5116559;28;8761;-60
2022/04/17 12:14:40;;;;;;;;;6.00;6.00;19.50;27.30;;;;;;5116077;28;8828;-63
2022/04/17 12:17:06;;;;;;;;;8.00;8.00;19.50;27.30;;;;;;5116126;28;9338;-63
2022/04/17 12:19:32;;;;;;;;;6.00;6.00;19.90;24.60;;;;;;5116145;28;8761;-61
2022/04/17 12:21:58;;;;;;;;;8.33;6.67;19.60;25.00;;;;;;5116112;28;8797;-63
2022/04/17 12:24:27;;;;;;;;;11.00;9.33;19.60;26.40;;;;;;5098018;28;9505;-62
2022/04/17 12:26:54;;;;;;;;;8.00;8.00;20.30;25.80;;;;;;5116011;28;8781;-62
2022/04/17 12:29:20;;;;;;;;;8.00;8.00;19.80;25.20;;;;;;5129520;27;8779;-61
2022/04/17 12:31:46;;;;;;;;;7.00;7.00;19.40;24.70;;;;;;5130273;27;11512;-60
2022/04/17 12:34:19;;;;;;;;;8.33;8.33;19.50;24.90;;;;;;5117846;27;11491;-60
2022/04/17 12:36:46;;;;;;;;;11.00;9.00;19.80;25.40;;;;;;5128428;27;9450;-61
2022/04/17 12:39:12;;;;;;;;;7.75;7.75;20.10;26.50;;;;;;5115960;28;11453;-60
2022/04/17 12:41:40;;;;;;;;;7.00;7.00;21.00;24.60;;;;;;5115666;28;11384;-60
2022/04/17 12:44:07;;;;;;;;;7.25;7.25;20.70;24.50;;;;;;5115563;28;11445;-61
2022/04/17 12:46:33;;;;;;;;;10.00;8.50;20.40;25.10;;;;;;5115573;28;11467;-61
2022/04/17 12:49:10;;;;;;;;;7.25;7.25;22.10;24.10;;;;;;5115482;28;11439;-62
2022/04/17 12:51:52;;;;;;;;;10.75;10.50;28.90;19.90;;;;;;5097977;28;11482;-63
2022/04/17 12:54:17;;;;;;;;;9.00;9.00;33.30;17.10;;;;;;5115614;28;12149;-61